sensor_id;sensor_type;location;lat;lon;timestamp;noise_LAeq;noise_LA_min;noise_LA_max;noise_LA01;noise_LA95
66274;Laerm;58450;52.150;4.466;2022-11-21T00:01:17;42.12;37.84;54.33;;
66274;Laerm;58450;52.150;4.466;2022-11-21T00:03:45;42.88;37.63;65.54;;
66274;Laerm;58450;52.150;4.466;2022-11-21T00:06:14;41.76;37.27;61.10;;
66274;Laerm;58450;52.150;4.466;2022-11-21T00:08:42;45.14;36.65;61.81;;
66274;Laerm;58450;52.150;4.466;2022-11-21T00:11:10;40.82;36.59;52.07;;
66274;Laerm;58450;52.150;4.466;2022-11-21T00:13:37;41.03;36.39;53.66;;
66274;Laerm;58450;52.150;4.466;2022-11-21T00:16:07;40.50;36.29;57.13;;
66274;Laerm;58450;52.150;4.466;2022-11-21T00:18:35;41.70;36.37;58.05;;
66274;Laerm;58450;52.150;4.466;2022-11-21T00:21:04;39.88;36.05;59.51;;
66274;Laerm;58450;52.150;4.466;2022-11-21T00:23:34;42.18;35.98;60.81;;
66274;Laerm;58450;52.150;4.466;2022-11-21T00:26:05;41.35;35.51;63.01;;
66274;Laerm;58450;52.150;4.466;2022-11-21T00:28:33;40.30;36.00;57.17;;
66274;Laerm;58450;52.150;4.466;2022-11-21T00:31:01;41.20;35.99;53.16;;
66274;Laerm;58450;52.150;4.466;2022-11-21T00:33:30;39.55;35.68;49.92;;
66274;Laerm;58450;52.150;4.466;2022-11-21T00:35:58;39.65;35.98;50.94;;
66274;Laerm;58450;52.150;4.466;2022-11-21T00:38:31;39.71;35.79;54.94;;
66274;Laerm;58450;52.150;4.466;2022-11-21T00:41:00;44.21;35.85;63.04;;
66274;Laerm;58450;52.150;4.466;2022-11-21T00:43:27;40.00;35.89;54.53;;
66274;Laerm;58450;52.150;4.466;2022-11-21T00:45:55;40.16;35.46;54.53;;
66274;Laerm;58450;52.150;4.466;2022-11-21T00:48:23;40.51;36.71;57.37;;
66274;Laerm;58450;52.150;4.466;2022-11-21T00:50:51;40.35;36.25;51.68;;
66274;Laerm;58450;52.150;4.466;2022-11-21T00:53:18;41.73;36.44;56.82;;
66274;Laerm;58450;52.150;4.466;2022-11-21T00:55:46;42.47;36.23;59.26;;
66274;Laerm;58450;52.150;4.466;2022-11-21T00:58:14;42.08;36.96;55.02;;
66274;Laerm;58450;52.150;4.466;2022-11-21T01:00:42;41.03;36.57;56.41;;
66274;Laerm;58450;52.150;4.466;2022-11-21T01:03:09;41.37;36.23;61.27;;
66274;Laerm;58450;52.150;4.466;2022-11-21T01:05:37;41.55;36.20;56.70;;
66274;Laerm;58450;52.150;4.466;2022-11-21T01:08:05;40.17;36.17;57.02;;
66274;Laerm;58450;52.150;4.466;2022-11-21T01:10:33;39.91;36.24;51.81;;
66274;Laerm;58450;52.150;4.466;2022-11-21T01:13:01;39.36;35.54;50.77;;
66274;Laerm;58450;52.150;4.466;2022-11-21T01:15:30;39.38;36.06;52.47;;
66274;Laerm;58450;52.150;4.466;2022-11-21T01:17:57;39.68;36.39;51.99;;
66274;Laerm;58450;52.150;4.466;2022-11-21T01:20:25;40.09;36.70;51.99;;
66274;Laerm;58450;52.150;4.466;2022-11-21T01:22:52;40.19;36.31;52.21;;
66274;Laerm;58450;52.150;4.466;2022-11-21T01:25:19;39.87;36.33;51.66;;
66274;Laerm;58450;52.150;4.466;2022-11-21T01:27:47;41.98;36.48;56.56;;
66274;Laerm;58450;52.150;4.466;2022-11-21T01:30:15;40.91;36.72;67.26;;
66274;Laerm;58450;52.150;4.466;2022-11-21T01:32:47;43.71;36.89;67.51;;
66274;Laerm;58450;52.150;4.466;2022-11-21T01:35:15;40.72;36.69;51.09;;
66274;Laerm;58450;52.150;4.466;2022-11-21T01:37:46;40.12;36.35;50.41;;
66274;Laerm;58450;52.150;4.466;2022-11-21T01:40:14;40.13;36.76;50.36;;
66274;Laerm;58450;52.150;4.466;2022-11-21T01:43:01;41.18;36.45;54.94;;
66274;Laerm;58450;52.150;4.466;2022-11-21T01:45:55;39.74;36.25;51.12;;
66274;Laerm;58450;52.150;4.466;2022-11-21T01:48:32;40.59;36.39;51.13;;
66274;Laerm;58450;52.150;4.466;2022-11-21T01:51:09;40.95;36.03;56.12;;
66274;Laerm;58450;52.150;4.466;2022-11-21T01:53:44;39.33;35.24;51.57;;
66274;Laerm;58450;52.150;4.466;2022-11-21T01:56:13;39.35;35.11;51.80;;
66274;Laerm;58450;52.150;4.466;2022-11-21T01:58:44;39.13;35.01;50.17;;
66274;Laerm;58450;52.150;4.466;2022-11-21T02:01:13;39.00;35.54;51.03;;
66274;Laerm;58450;52.150;4.466;2022-11-21T02:03:44;39.72;35.76;59.44;;
66274;Laerm;58450;52.150;4.466;2022-11-21T02:06:12;38.86;35.80;49.47;;
66274;Laerm;58450;52.150;4.466;2022-11-21T02:08:43;42.42;37.38;52.72;;
66274;Laerm;58450;52.150;4.466;2022-11-21T02:11:21;40.96;37.04;50.30;;
66274;Laerm;58450;52.150;4.466;2022-11-21T02:13:52;39.86;36.61;51.98;;
66274;Laerm;58450;52.150;4.466;2022-11-21T02:16:20;39.68;36.63;54.43;;
66274;Laerm;58450;52.150;4.466;2022-11-21T02:18:49;39.40;36.53;48.90;;
66274;Laerm;58450;52.150;4.466;2022-11-21T02:21:31;39.66;36.19;51.99;;
66274;Laerm;58450;52.150;4.466;2022-11-21T02:24:13;39.37;35.99;51.36;;
66274;Laerm;58450;52.150;4.466;2022-11-21T02:26:47;45.10;36.12;66.72;;
66274;Laerm;58450;52.150;4.466;2022-11-21T02:29:15;39.69;35.90;50.46;;
66274;Laerm;58450;52.150;4.466;2022-11-21T02:31:43;39.61;36.23;52.15;;
66274;Laerm;58450;52.150;4.466;2022-11-21T02:34:10;39.98;35.97;52.22;;
66274;Laerm;58450;52.150;4.466;2022-11-21T02:36:43;39.27;35.76;51.50;;
66274;Laerm;58450;52.150;4.466;2022-11-21T02:39:18;39.40;36.14;54.46;;
66274;Laerm;58450;52.150;4.466;2022-11-21T02:41:58;41.01;36.21;56.53;;
66274;Laerm;58450;52.150;4.466;2022-11-21T02:44:38;39.22;35.73;52.12;;
66274;Laerm;58450;52.150;4.466;2022-11-21T02:47:09;38.88;35.62;51.53;;
66274;Laerm;58450;52.150;4.466;2022-11-21T02:49:47;39.05;35.68;54.32;;
66274;Laerm;58450;52.150;4.466;2022-11-21T02:52:15;39.20;35.79;50.24;;
66274;Laerm;58450;52.150;4.466;2022-11-21T02:54:43;39.70;36.26;52.12;;
66274;Laerm;58450;52.150;4.466;2022-11-21T02:57:12;42.03;36.29;61.79;;
66274;Laerm;58450;52.150;4.466;2022-11-21T02:59:39;39.59;35.52;53.75;;
66274;Laerm;58450;52.150;4.466;2022-11-21T03:02:07;39.59;36.21;49.46;;
66274;Laerm;58450;52.150;4.466;2022-11-21T03:04:34;39.12;36.09;47.47;;
66274;Laerm;58450;52.150;4.466;2022-11-21T03:07:01;39.03;35.80;50.56;;
66274;Laerm;58450;52.150;4.466;2022-11-21T03:09:29;45.66;36.13;68.08;;
66274;Laerm;58450;52.150;4.466;2022-11-21T03:11:56;39.43;35.70;51.77;;
66274;Laerm;58450;52.150;4.466;2022-11-21T03:14:25;38.69;35.73;50.25;;
66274;Laerm;58450;52.150;4.466;2022-11-21T03:16:53;39.69;35.62;53.85;;
66274;Laerm;58450;52.150;4.466;2022-11-21T03:19:20;39.70;36.21;51.47;;
66274;Laerm;58450;52.150;4.466;2022-11-21T03:21:48;44.52;36.82;67.89;;
66274;Laerm;58450;52.150;4.466;2022-11-21T03:24:15;40.28;35.67;52.05;;
66274;Laerm;58450;52.150;4.466;2022-11-21T03:26:42;41.37;35.87;54.54;;
66274;Laerm;58450;52.150;4.466;2022-11-21T03:29:10;40.40;35.47;52.46;;
66274;Laerm;58450;52.150;4.466;2022-11-21T03:31:39;40.61;36.12;62.77;;
66274;Laerm;58450;52.150;4.466;2022-11-21T03:34:06;39.60;36.15;51.76;;
66274;Laerm;58450;52.150;4.466;2022-11-21T03:36:34;39.52;36.44;52.30;;
66274;Laerm;58450;52.150;4.466;2022-11-21T03:39:02;40.11;36.74;50.95;;
66274;Laerm;58450;52.150;4.466;2022-11-21T03:41:29;42.59;36.84;59.18;;
66274;Laerm;58450;52.150;4.466;2022-11-21T03:43:59;40.30;36.42;52.47;;
66274;Laerm;58450;52.150;4.466;2022-11-21T03:46:27;39.89;36.62;52.30;;
66274;Laerm;58450;52.150;4.466;2022-11-21T03:48:57;40.96;36.05;61.12;;
66274;Laerm;58450;52.150;4.466;2022-11-21T03:51:25;40.70;36.74;62.49;;
66274;Laerm;58450;52.150;4.466;2022-11-21T03:53:53;39.70;36.29;50.69;;
66274;Laerm;58450;52.150;4.466;2022-11-21T03:56:21;39.44;36.46;50.49;;
66274;Laerm;58450;52.150;4.466;2022-11-21T03:58:48;39.84;35.99;58.05;;
66274;Laerm;58450;52.150;4.466;2022-11-21T04:01:16;43.81;36.17;63.96;;
66274;Laerm;58450;52.150;4.466;2022-11-21T04:03:44;43.03;36.45;65.93;;
66274;Laerm;58450;52.150;4.466;2022-11-21T04:06:16;41.90;37.59;53.59;;
66274;Laerm;58450;52.150;4.466;2022-11-21T04:08:44;41.35;37.72;53.40;;
66274;Laerm;58450;52.150;4.466;2022-11-21T04:11:12;40.55;36.39;54.63;;
66274;Laerm;58450;52.150;4.466;2022-11-21T04:13:39;40.62;37.24;51.48;;
66274;Laerm;58450;52.150;4.466;2022-11-21T04:16:07;41.17;37.66;52.46;;
66274;Laerm;58450;52.150;4.466;2022-11-21T04:18:35;41.84;37.62;53.35;;
66274;Laerm;58450;52.150;4.466;2022-11-21T04:21:06;41.21;37.21;51.25;;
66274;Laerm;58450;52.150;4.466;2022-11-21T04:23:35;42.76;37.18;59.01;;
66274;Laerm;58450;52.150;4.466;2022-11-21T04:26:03;42.40;37.52;54.17;;
66274;Laerm;58450;52.150;4.466;2022-11-21T04:28:30;44.75;37.68;61.94;;
66274;Laerm;58450;52.150;4.466;2022-11-21T04:31:03;41.18;37.83;52.08;;
66274;Laerm;58450;52.150;4.466;2022-11-21T04:33:30;42.20;38.11;55.37;;
66274;Laerm;58450;52.150;4.466;2022-11-21T04:35:58;43.46;38.60;56.26;;
66274;Laerm;58450;52.150;4.466;2022-11-21T04:38:27;41.73;38.00;50.82;;
66274;Laerm;58450;52.150;4.466;2022-11-21T04:40:56;43.23;38.04;53.36;;
66274;Laerm;58450;52.150;4.466;2022-11-21T04:43:23;43.96;38.85;58.39;;
66274;Laerm;58450;52.150;4.466;2022-11-21T04:45:51;50.71;38.87;76.79;;
66274;Laerm;58450;52.150;4.466;2022-11-21T04:48:18;43.96;40.00;56.30;;
66274;Laerm;58450;52.150;4.466;2022-11-21T04:50:46;44.13;40.14;52.00;;
66274;Laerm;58450;52.150;4.466;2022-11-21T04:53:13;44.35;40.44;53.86;;
66274;Laerm;58450;52.150;4.466;2022-11-21T04:55:40;43.99;39.80;55.25;;
66274;Laerm;58450;52.150;4.466;2022-11-21T04:58:09;44.20;39.26;55.60;;
66274;Laerm;58450;52.150;4.466;2022-11-21T05:00:37;46.12;39.06;58.65;;
66274;Laerm;58450;52.150;4.466;2022-11-21T05:03:06;52.19;39.46;68.03;;
66274;Laerm;58450;52.150;4.466;2022-11-21T05:05:34;43.76;38.83;53.40;;
66274;Laerm;58450;52.150;4.466;2022-11-21T05:08:01;44.27;40.32;52.43;;
66274;Laerm;58450;52.150;4.466;2022-11-21T05:10:29;45.62;40.89;53.76;;
66274;Laerm;58450;52.150;4.466;2022-11-21T05:12:57;45.43;40.60;59.35;;
66274;Laerm;58450;52.150;4.466;2022-11-21T05:15:44;46.24;41.64;53.23;;
66274;Laerm;58450;52.150;4.466;2022-11-21T05:18:12;46.46;41.54;60.36;;
66274;Laerm;58450;52.150;4.466;2022-11-21T05:20:40;45.80;40.54;55.95;;
66274;Laerm;58450;52.150;4.466;2022-11-21T05:23:07;45.79;41.42;53.94;;
66274;Laerm;58450;52.150;4.466;2022-11-21T05:25:35;46.91;40.90;60.00;;
66274;Laerm;58450;52.150;4.466;2022-11-21T05:28:02;46.08;40.24;55.82;;
66274;Laerm;58450;52.150;4.466;2022-11-21T05:30:30;46.61;42.46;57.27;;
66274;Laerm;58450;52.150;4.466;2022-11-21T05:32:59;46.52;42.22;62.32;;
66274;Laerm;58450;52.150;4.466;2022-11-21T05:35:26;46.70;41.58;54.29;;
66274;Laerm;58450;52.150;4.466;2022-11-21T05:37:57;46.16;42.30;53.26;;
66274;Laerm;58450;52.150;4.466;2022-11-21T05:40:25;46.86;42.66;58.43;;
66274;Laerm;58450;52.150;4.466;2022-11-21T05:42:52;47.35;42.94;59.89;;
66274;Laerm;58450;52.150;4.466;2022-11-21T05:45:37;53.17;42.95;75.39;;
66274;Laerm;58450;52.150;4.466;2022-11-21T05:48:06;49.66;43.33;73.58;;
66274;Laerm;58450;52.150;4.466;2022-11-21T05:50:35;51.44;43.17;72.87;;
66274;Laerm;58450;52.150;4.466;2022-11-21T05:53:03;47.65;43.26;61.37;;
66274;Laerm;58450;52.150;4.466;2022-11-21T05:55:33;49.02;42.17;63.25;;
66274;Laerm;58450;52.150;4.466;2022-11-21T05:58:00;46.87;41.80;56.21;;
66274;Laerm;58450;52.150;4.466;2022-11-21T06:00:28;48.23;42.37;66.29;;
66274;Laerm;58450;52.150;4.466;2022-11-21T06:02:55;46.69;42.44;60.53;;
66274;Laerm;58450;52.150;4.466;2022-11-21T06:05:42;47.38;41.75;58.74;;
66274;Laerm;58450;52.150;4.466;2022-11-21T06:08:09;47.04;43.05;54.03;;
66274;Laerm;58450;52.150;4.466;2022-11-21T06:10:37;48.31;43.09;61.93;;
66274;Laerm;58450;52.150;4.466;2022-11-21T06:13:04;50.81;43.50;70.76;;
66274;Laerm;58450;52.150;4.466;2022-11-21T06:15:52;53.97;47.09;64.96;;
66274;Laerm;58450;52.150;4.466;2022-11-21T06:18:22;49.93;44.10;66.87;;
66274;Laerm;58450;52.150;4.466;2022-11-21T06:20:51;51.82;44.63;71.31;;
66274;Laerm;58450;52.150;4.466;2022-11-21T06:23:18;51.56;44.03;69.98;;
66274;Laerm;58450;52.150;4.466;2022-11-21T06:25:46;50.50;43.54;62.38;;
66274;Laerm;58450;52.150;4.466;2022-11-21T06:28:13;54.14;47.00;70.27;;
66274;Laerm;58450;52.150;4.466;2022-11-21T06:30:41;50.36;46.02;67.60;;
66274;Laerm;58450;52.150;4.466;2022-11-21T06:33:08;49.81;45.73;59.24;;
66274;Laerm;58450;52.150;4.466;2022-11-21T06:35:36;51.15;44.57;65.89;;
66274;Laerm;58450;52.150;4.466;2022-11-21T06:38:06;50.10;45.67;60.27;;
66274;Laerm;58450;52.150;4.466;2022-11-21T06:40:34;50.54;45.49;67.63;;
66274;Laerm;58450;52.150;4.466;2022-11-21T06:43:01;51.13;45.88;64.77;;
66274;Laerm;58450;52.150;4.466;2022-11-21T06:45:29;48.81;45.15;58.26;;
66274;Laerm;58450;52.150;4.466;2022-11-21T06:47:59;50.27;45.36;63.82;;
66274;Laerm;58450;52.150;4.466;2022-11-21T06:50:27;50.17;46.05;65.28;;
66274;Laerm;58450;52.150;4.466;2022-11-21T06:52:56;52.77;48.06;68.94;;
66274;Laerm;58450;52.150;4.466;2022-11-21T06:55:26;52.36;47.63;64.00;;
66274;Laerm;58450;52.150;4.466;2022-11-21T06:57:57;53.50;47.65;67.74;;
66274;Laerm;58450;52.150;4.466;2022-11-21T07:00:26;52.52;47.01;70.19;;
66274;Laerm;58450;52.150;4.466;2022-11-21T07:02:59;52.46;46.36;66.85;;
66274;Laerm;58450;52.150;4.466;2022-11-21T07:05:27;51.46;47.03;66.04;;
66274;Laerm;58450;52.150;4.466;2022-11-21T07:07:57;57.60;47.02;85.88;;
66274;Laerm;58450;52.150;4.466;2022-11-21T07:10:27;55.65;46.56;82.01;;
66274;Laerm;58450;52.150;4.466;2022-11-21T07:12:56;52.46;47.16;70.51;;
66274;Laerm;58450;52.150;4.466;2022-11-21T07:15:41;51.53;47.56;66.06;;
66274;Laerm;58450;52.150;4.466;2022-11-21T07:18:09;50.92;47.37;59.67;;
66274;Laerm;58450;52.150;4.466;2022-11-21T07:20:36;51.05;47.09;66.21;;
66274;Laerm;58450;52.150;4.466;2022-11-21T07:23:04;51.24;46.17;66.64;;
66274;Laerm;58450;52.150;4.466;2022-11-21T07:25:33;52.27;46.76;71.74;;
66274;Laerm;58450;52.150;4.466;2022-11-21T07:28:02;55.96;46.93;74.22;;
66274;Laerm;58450;52.150;4.466;2022-11-21T07:30:30;56.32;46.97;75.10;;
66274;Laerm;58450;52.150;4.466;2022-11-21T07:32:59;52.70;48.12;65.54;;
66274;Laerm;58450;52.150;4.466;2022-11-21T07:35:28;51.96;47.27;60.82;;
66274;Laerm;58450;52.150;4.466;2022-11-21T07:37:56;52.00;48.04;65.64;;
66274;Laerm;58450;52.150;4.466;2022-11-21T07:40:24;52.60;47.98;63.01;;
66274;Laerm;58450;52.150;4.466;2022-11-21T07:42:59;51.61;47.32;61.85;;
66274;Laerm;58450;52.150;4.466;2022-11-21T07:45:27;51.00;47.11;65.13;;
66274;Laerm;58450;52.150;4.466;2022-11-21T07:47:58;52.21;47.70;72.26;;
66274;Laerm;58450;52.150;4.466;2022-11-21T07:50:26;52.63;47.32;66.76;;
66274;Laerm;58450;52.150;4.466;2022-11-21T07:52:57;51.44;46.58;65.77;;
66274;Laerm;58450;52.150;4.466;2022-11-21T07:55:25;51.40;47.03;66.60;;
66274;Laerm;58450;52.150;4.466;2022-11-21T07:58:01;51.78;47.00;62.52;;
66274;Laerm;58450;52.150;4.466;2022-11-21T08:00:30;51.24;46.53;62.89;;
66274;Laerm;58450;52.150;4.466;2022-11-21T08:02:58;50.56;46.59;66.33;;
66274;Laerm;58450;52.150;4.466;2022-11-21T08:05:26;51.89;46.73;58.21;;
66274;Laerm;58450;52.150;4.466;2022-11-21T08:07:53;51.05;46.95;58.67;;
66274;Laerm;58450;52.150;4.466;2022-11-21T08:10:21;55.61;46.46;67.37;;
66274;Laerm;58450;52.150;4.466;2022-11-21T08:12:48;50.68;45.43;60.87;;
66274;Laerm;58450;52.150;4.466;2022-11-21T08:15:17;50.40;45.64;61.40;;
66274;Laerm;58450;52.150;4.466;2022-11-21T08:17:45;50.22;45.18;60.00;;
66274;Laerm;58450;52.150;4.466;2022-11-21T08:20:13;50.31;45.93;65.96;;
66274;Laerm;58450;52.150;4.466;2022-11-21T08:22:41;49.64;44.95;68.50;;
66274;Laerm;58450;52.150;4.466;2022-11-21T08:25:10;50.10;44.58;58.62;;
66274;Laerm;58450;52.150;4.466;2022-11-21T08:27:38;50.21;45.46;65.36;;
66274;Laerm;58450;52.150;4.466;2022-11-21T08:30:10;49.28;45.19;56.69;;
66274;Laerm;58450;52.150;4.466;2022-11-21T08:32:39;49.76;44.06;59.08;;
66274;Laerm;58450;52.150;4.466;2022-11-21T08:35:07;51.48;44.78;65.12;;
66274;Laerm;58450;52.150;4.466;2022-11-21T08:37:34;51.56;45.16;59.84;;
66274;Laerm;58450;52.150;4.466;2022-11-21T08:40:03;51.10;45.81;60.08;;
66274;Laerm;58450;52.150;4.466;2022-11-21T08:42:30;53.87;46.95;67.79;;
66274;Laerm;58450;52.150;4.466;2022-11-21T08:44:58;54.77;47.18;68.65;;
66274;Laerm;58450;52.150;4.466;2022-11-21T08:47:25;52.09;47.47;60.45;;
66274;Laerm;58450;52.150;4.466;2022-11-21T08:49:54;54.31;47.88;73.63;;
66274;Laerm;58450;52.150;4.466;2022-11-21T08:52:21;51.50;47.34;63.71;;
66274;Laerm;58450;52.150;4.466;2022-11-21T08:54:49;52.20;46.84;65.85;;
66274;Laerm;58450;52.150;4.466;2022-11-21T08:57:16;52.55;47.13;65.15;;
66274;Laerm;58450;52.150;4.466;2022-11-21T08:59:44;51.72;47.76;63.63;;
66274;Laerm;58450;52.150;4.466;2022-11-21T09:02:11;52.16;47.33;65.72;;
66274;Laerm;58450;52.150;4.466;2022-11-21T09:04:39;51.70;46.92;71.05;;
66274;Laerm;58450;52.150;4.466;2022-11-21T09:07:08;53.44;47.53;67.38;;
66274;Laerm;58450;52.150;4.466;2022-11-21T09:09:35;58.49;46.62;75.41;;
66274;Laerm;58450;52.150;4.466;2022-11-21T09:12:03;51.90;47.20;66.75;;
66274;Laerm;58450;52.150;4.466;2022-11-21T09:14:31;53.11;47.18;67.09;;
66274;Laerm;58450;52.150;4.466;2022-11-21T09:17:16;52.79;48.11;61.26;;
66274;Laerm;58450;52.150;4.466;2022-11-21T09:20:01;52.26;47.98;65.47;;
66274;Laerm;58450;52.150;4.466;2022-11-21T09:22:30;52.43;47.30;59.95;;
66274;Laerm;58450;52.150;4.466;2022-11-21T09:24:58;52.10;47.86;59.55;;
66274;Laerm;58450;52.150;4.466;2022-11-21T09:27:25;51.85;46.51;63.42;;
66274;Laerm;58450;52.150;4.466;2022-11-21T09:29:53;50.54;46.71;57.28;;
66274;Laerm;58450;52.150;4.466;2022-11-21T09:32:20;50.74;46.73;59.99;;
66274;Laerm;58450;52.150;4.466;2022-11-21T09:34:48;51.80;47.00;62.56;;
66274;Laerm;58450;52.150;4.466;2022-11-21T09:37:15;51.49;47.12;66.87;;
66274;Laerm;58450;52.150;4.466;2022-11-21T09:39:44;51.51;47.20;65.24;;
66274;Laerm;58450;52.150;4.466;2022-11-21T09:42:36;51.89;47.70;70.32;;
66274;Laerm;58450;52.150;4.466;2022-11-21T09:45:16;57.95;49.27;63.09;;
66274;Laerm;58450;52.150;4.466;2022-11-21T09:47:48;52.89;47.94;62.21;;
66274;Laerm;58450;52.150;4.466;2022-11-21T09:50:28;52.74;48.33;62.08;;
66274;Laerm;58450;52.150;4.466;2022-11-21T09:53:04;54.89;49.08;67.66;;
66274;Laerm;58450;52.150;4.466;2022-11-21T09:55:41;53.46;47.37;70.17;;
66274;Laerm;58450;52.150;4.466;2022-11-21T09:58:22;53.55;47.47;74.57;;
66274;Laerm;58450;52.150;4.466;2022-11-21T10:00:51;54.42;47.11;69.19;;
66274;Laerm;58450;52.150;4.466;2022-11-21T10:03:23;52.50;47.52;65.21;;
66274;Laerm;58450;52.150;4.466;2022-11-21T10:05:56;54.02;47.73;65.70;;
66274;Laerm;58450;52.150;4.466;2022-11-21T10:08:40;52.91;48.30;65.05;;
66274;Laerm;58450;52.150;4.466;2022-11-21T10:11:21;54.21;48.57;73.73;;
66274;Laerm;58450;52.150;4.466;2022-11-21T10:14:06;53.58;48.42;62.11;;
66274;Laerm;58450;52.150;4.466;2022-11-21T10:16:48;53.38;47.71;67.11;;
66274;Laerm;58450;52.150;4.466;2022-11-21T10:19:43;52.24;47.65;62.54;;
66274;Laerm;58450;52.150;4.466;2022-11-21T10:22:34;53.04;47.91;69.43;;
66274;Laerm;58450;52.150;4.466;2022-11-21T10:25:12;54.54;48.50;73.52;;
66274;Laerm;58450;52.150;4.466;2022-11-21T10:27:50;55.63;48.23;76.38;;
66274;Laerm;58450;52.150;4.466;2022-11-21T10:30:20;53.84;47.81;66.94;;
66274;Laerm;58450;52.150;4.466;2022-11-21T10:32:53;54.68;47.81;71.23;;
66274;Laerm;58450;52.150;4.466;2022-11-21T10:35:25;54.85;48.77;64.11;;
66274;Laerm;58450;52.150;4.466;2022-11-21T10:38:00;52.95;47.83;64.34;;
66274;Laerm;58450;52.150;4.466;2022-11-21T10:40:36;53.13;46.71;62.84;;
66274;Laerm;58450;52.150;4.466;2022-11-21T10:43:19;53.60;47.76;72.95;;
66274;Laerm;58450;52.150;4.466;2022-11-21T10:46:07;53.20;47.37;62.10;;
66274;Laerm;58450;52.150;4.466;2022-11-21T10:48:35;53.76;48.84;67.21;;
66274;Laerm;58450;52.150;4.466;2022-11-21T10:51:23;54.11;48.92;64.17;;
66274;Laerm;58450;52.150;4.466;2022-11-21T10:54:12;54.19;48.62;72.77;;
66274;Laerm;58450;52.150;4.466;2022-11-21T10:57:04;53.88;48.52;68.14;;
66274;Laerm;58450;52.150;4.466;2022-11-21T10:59:34;52.86;48.91;59.32;;
66274;Laerm;58450;52.150;4.466;2022-11-21T11:02:23;52.81;48.41;62.39;;
66274;Laerm;58450;52.150;4.466;2022-11-21T11:05:18;53.31;48.72;60.02;;
66274;Laerm;58450;52.150;4.466;2022-11-21T11:08:01;52.77;48.24;67.06;;
66274;Laerm;58450;52.150;4.466;2022-11-21T11:10:30;52.80;47.81;62.60;;
66274;Laerm;58450;52.150;4.466;2022-11-21T11:12:58;53.47;48.01;60.65;;
66274;Laerm;58450;52.150;4.466;2022-11-21T11:16:02;53.76;48.60;65.83;;
66274;Laerm;58450;52.150;4.466;2022-11-21T11:18:32;52.27;47.35;62.15;;
66274;Laerm;58450;52.150;4.466;2022-11-21T11:21:17;54.60;48.84;62.69;;
66274;Laerm;58450;52.150;4.466;2022-11-21T11:23:47;61.84;55.16;66.18;;
66274;Laerm;58450;52.150;4.466;2022-11-21T11:26:23;57.38;51.61;66.94;;
66274;Laerm;58450;52.150;4.466;2022-11-21T11:29:04;55.16;50.80;64.00;;
66274;Laerm;58450;52.150;4.466;2022-11-21T11:31:41;55.18;50.26;65.67;;
66274;Laerm;58450;52.150;4.466;2022-11-21T11:34:13;54.54;50.36;61.43;;
66274;Laerm;58450;52.150;4.466;2022-11-21T11:36:55;54.62;49.13;63.21;;
66274;Laerm;58450;52.150;4.466;2022-11-21T11:39:39;54.42;48.87;64.65;;
66274;Laerm;58450;52.150;4.466;2022-11-21T11:43:04;55.00;48.25;71.05;;
66274;Laerm;58450;52.150;4.466;2022-11-21T11:46:26;53.99;47.60;69.66;;
66274;Laerm;58450;52.150;4.466;2022-11-21T11:49:27;52.18;47.79;67.50;;
66274;Laerm;58450;52.150;4.466;2022-11-21T11:52:02;52.33;46.47;60.28;;
66274;Laerm;58450;52.150;4.466;2022-11-21T11:54:42;51.90;47.44;58.28;;
66274;Laerm;58450;52.150;4.466;2022-11-21T11:57:13;53.00;47.19;64.40;;
66274;Laerm;58450;52.150;4.466;2022-11-21T11:59:46;52.61;46.39;65.50;;
66274;Laerm;58450;52.150;4.466;2022-11-21T12:02:20;52.67;47.87;60.71;;
66274;Laerm;58450;52.150;4.466;2022-11-21T12:04:56;53.31;47.28;61.02;;
66274;Laerm;58450;52.150;4.466;2022-11-21T12:07:32;52.46;47.42;65.41;;
66274;Laerm;58450;52.150;4.466;2022-11-21T12:10:12;52.78;46.88;64.82;;
66274;Laerm;58450;52.150;4.466;2022-11-21T12:12:47;51.38;46.72;60.96;;
66274;Laerm;58450;52.150;4.466;2022-11-21T12:15:22;52.78;46.85;64.49;;
66274;Laerm;58450;52.150;4.466;2022-11-21T12:18:22;51.54;46.36;64.52;;
66274;Laerm;58450;52.150;4.466;2022-11-21T12:20:59;52.54;46.70;62.51;;
66274;Laerm;58450;52.150;4.466;2022-11-21T12:23:35;52.63;46.60;62.24;;
66274;Laerm;58450;52.150;4.466;2022-11-21T12:26:21;52.02;46.33;58.48;;
66274;Laerm;58450;52.150;4.466;2022-11-21T12:29:10;52.01;46.36;61.43;;
66274;Laerm;58450;52.150;4.466;2022-11-21T12:32:03;52.95;47.52;65.08;;
66274;Laerm;58450;52.150;4.466;2022-11-21T12:34:57;52.70;48.12;65.67;;
66274;Laerm;58450;52.150;4.466;2022-11-21T12:37:41;52.22;46.80;61.82;;
66274;Laerm;58450;52.150;4.466;2022-11-21T12:40:40;50.17;45.86;57.07;;
66274;Laerm;58450;52.150;4.466;2022-11-21T12:43:26;50.53;45.91;59.14;;
66274;Laerm;58450;52.150;4.466;2022-11-21T12:46:06;50.84;46.25;65.06;;
66274;Laerm;58450;52.150;4.466;2022-11-21T12:48:50;51.88;47.39;63.62;;
66274;Laerm;58450;52.150;4.466;2022-11-21T12:55:18;53.16;47.48;69.94;;
66274;Laerm;58450;52.150;4.466;2022-11-21T12:58:05;55.15;48.74;72.10;;
66274;Laerm;58450;52.150;4.466;2022-11-21T13:00:55;53.50;47.32;71.26;;
66274;Laerm;58450;52.150;4.466;2022-11-21T13:06:28;54.19;46.69;71.65;;
66274;Laerm;58450;52.150;4.466;2022-11-21T13:09:00;55.05;48.57;64.53;;
66274;Laerm;58450;52.150;4.466;2022-11-21T13:11:45;55.29;47.84;71.01;;
66274;Laerm;58450;52.150;4.466;2022-11-21T13:14:36;55.99;46.90;70.75;;
66274;Laerm;58450;52.150;4.466;2022-11-21T13:17:17;53.10;47.64;69.50;;
66274;Laerm;58450;52.150;4.466;2022-11-21T13:19:53;53.50;47.10;64.72;;
66274;Laerm;58450;52.150;4.466;2022-11-21T13:23:03;53.88;48.37;66.31;;
66274;Laerm;58450;52.150;4.466;2022-11-21T13:25:42;54.51;48.38;68.68;;
66274;Laerm;58450;52.150;4.466;2022-11-21T13:28:32;52.59;48.05;61.90;;
66274;Laerm;58450;52.150;4.466;2022-11-21T13:33:50;55.10;47.19;75.62;;
66274;Laerm;58450;52.150;4.466;2022-11-21T13:36:39;54.69;47.21;74.63;;
66274;Laerm;58450;52.150;4.466;2022-11-21T13:39:27;53.43;47.17;70.50;;
66274;Laerm;58450;52.150;4.466;2022-11-21T13:42:12;51.47;46.06;68.90;;
66274;Laerm;58450;52.150;4.466;2022-11-21T13:45:39;55.82;47.07;78.56;;
66274;Laerm;58450;52.150;4.466;2022-11-21T13:48:51;53.24;47.23;74.06;;
66274;Laerm;58450;52.150;4.466;2022-11-21T13:51:48;54.87;47.37;79.13;;
66274;Laerm;58450;52.150;4.466;2022-11-21T13:54:50;53.12;47.72;70.67;;
66274;Laerm;58450;52.150;4.466;2022-11-21T13:57:38;54.14;47.80;73.13;;
66274;Laerm;58450;52.150;4.466;2022-11-21T14:00:46;54.42;49.26;74.09;;
66274;Laerm;58450;52.150;4.466;2022-11-21T14:03:42;54.37;49.53;64.65;;
66274;Laerm;58450;52.150;4.466;2022-11-21T14:06:31;54.52;48.85;64.46;;
66274;Laerm;58450;52.150;4.466;2022-11-21T14:09:18;54.53;49.33;64.40;;
66274;Laerm;58450;52.150;4.466;2022-11-21T14:11:49;54.39;48.99;62.49;;
66274;Laerm;58450;52.150;4.466;2022-11-21T14:14:44;54.97;49.92;62.06;;
66274;Laerm;58450;52.150;4.466;2022-11-21T14:17:42;55.32;49.76;75.14;;
66274;Laerm;58450;52.150;4.466;2022-11-21T14:20:18;55.97;49.49;64.89;;
66274;Laerm;58450;52.150;4.466;2022-11-21T14:22:55;55.52;50.22;66.39;;
66274;Laerm;58450;52.150;4.466;2022-11-21T14:25:34;55.24;49.65;65.89;;
66274;Laerm;58450;52.150;4.466;2022-11-21T14:28:07;54.88;49.69;63.46;;
66274;Laerm;58450;52.150;4.466;2022-11-21T14:30:38;55.22;49.59;63.77;;